createdAt,value
2022-07-28T00:00:01.067Z,21.48
2022-07-28T00:03:02.681Z,21.39
2022-07-28T00:06:04.273Z,21.49
2022-07-28T00:09:05.683Z,21.39
2022-07-28T00:12:07.548Z,21.35
2022-07-28T00:15:09.581Z,21.37
2022-07-28T00:18:11.127Z,21.40
2022-07-28T00:21:13.083Z,21.39
2022-07-28T00:24:15.005Z,21.44
2022-07-28T00:27:19.289Z,21.39
2022-07-28T00:30:21.017Z,21.37
2022-07-28T00:33:22.805Z,21.38
2022-07-28T00:36:25.643Z,21.37
2022-07-28T00:39:27.453Z,21.34
2022-07-28T00:42:28.868Z,21.22
2022-07-28T00:45:30.283Z,21.26
2022-07-28T00:48:32.062Z,21.28
2022-07-28T00:51:33.658Z,21.27
2022-07-28T00:54:36.034Z,21.24
2022-07-28T00:57:37.517Z,21.19
2022-07-28T01:00:38.944Z,21.15
2022-07-28T01:03:43.128Z,21.08
2022-07-28T01:07:06.491Z,21.12
2022-07-28T01:10:28.596Z,21.16
2022-07-28T01:13:47.514Z,21.12
2022-07-28T01:17:13.834Z,20.94
2022-07-28T01:20:18.532Z,20.83
2022-07-28T01:23:32.066Z,20.93
2022-07-28T01:27:00.010Z,21.01
2022-07-28T01:30:10.873Z,20.88
2022-07-28T01:33:18.564Z,20.74
2022-07-28T01:36:25.308Z,20.76
2022-07-28T01:39:32.153Z,20.87
2022-07-28T01:42:39.053Z,20.96
2022-07-28T01:45:43.173Z,20.89
2022-07-28T01:48:46.938Z,20.89
2022-07-28T01:51:51.227Z,20.95
2022-07-28T01:54:54.962Z,20.93
2022-07-28T01:57:57.611Z,20.96
2022-07-28T02:01:00.421Z,20.90
2022-07-28T02:04:04.450Z,20.88
2022-07-28T02:07:09.849Z,20.76
2022-07-28T02:10:16.829Z,20.84
2022-07-28T02:13:18.352Z,20.67
2022-07-28T02:16:23.160Z,20.72
2022-07-28T02:19:27.731Z,20.75
2022-07-28T02:22:30.739Z,20.75
2022-07-28T02:25:33.222Z,20.73
2022-07-28T02:28:34.909Z,20.81
2022-07-28T02:31:50.417Z,20.79
2022-07-28T02:34:52.939Z,20.63
2022-07-28T02:38:00.625Z,20.60
2022-07-28T02:41:17.425Z,20.39
2022-07-28T02:44:23.292Z,20.14
2022-07-28T02:47:27.972Z,20.15
2022-07-28T02:50:29.661Z,20.03
2022-07-28T02:53:31.552Z,20.01
2022-07-28T02:56:34.277Z,20.18
2022-07-28T02:59:36.621Z,20.28
2022-07-28T03:02:39.518Z,20.33
2022-07-28T03:05:41.662Z,20.05
2022-07-28T03:08:43.534Z,19.92
2022-07-28T03:11:54.673Z,19.85
2022-07-28T03:14:56.106Z,19.84
2022-07-28T03:17:57.722Z,19.69
2022-07-28T03:20:59.295Z,19.74
2022-07-28T03:24:00.767Z,19.73
2022-07-28T03:27:08.244Z,19.75
2022-07-28T03:30:14.123Z,19.73
2022-07-28T03:33:15.634Z,19.72
2022-07-28T03:36:24.301Z,19.74
2022-07-28T03:39:27.616Z,19.55
2022-07-28T03:42:35.342Z,19.52
2022-07-28T03:45:40.846Z,19.39
2022-07-28T03:48:42.557Z,19.36
2022-07-28T03:51:44.005Z,19.23
2022-07-28T03:54:45.599Z,19.31
2022-07-28T03:57:47.635Z,19.39
2022-07-28T04:00:49.679Z,19.39
2022-07-28T04:03:51.161Z,19.37
2022-07-28T04:06:52.582Z,19.22
2022-07-28T04:09:54.034Z,19.22
2022-07-28T04:12:57.401Z,19.04
2022-07-28T04:15:59.931Z,19.08
2022-07-28T04:19:01.652Z,18.99
2022-07-28T04:22:03.120Z,19.01
2022-07-28T04:25:05.625Z,19.02
2022-07-28T04:28:07.149Z,19.16
2022-07-28T04:31:08.747Z,19.05
2022-07-28T04:34:10.288Z,18.97
2022-07-28T04:37:12.642Z,19.08
2022-07-28T04:40:15.154Z,19.03
2022-07-28T04:43:16.681Z,19.12
2022-07-28T04:46:18.243Z,19.06
2022-07-28T04:49:19.793Z,19.15
2022-07-28T04:52:21.983Z,19.09
2022-07-28T04:55:24.745Z,19.13
2022-07-28T04:58:27.442Z,19.17
2022-07-28T05:01:32.470Z,19.22
2022-07-28T05:04:34.203Z,19.24
2022-07-28T05:07:40.958Z,19.35
2022-07-28T05:10:42.377Z,19.46
2022-07-28T05:13:44.497Z,19.56
2022-07-28T05:16:46.065Z,19.50
2022-07-28T05:19:47.593Z,19.39
2022-07-28T05:22:53.605Z,19.74
2022-07-28T05:25:55.125Z,19.75
2022-07-28T05:28:57.200Z,19.90
2022-07-28T05:31:58.670Z,19.77
2022-07-28T05:35:00.108Z,19.62
2022-07-28T05:38:01.673Z,19.82
2022-07-28T05:41:03.113Z,19.95
2022-07-28T05:44:04.633Z,19.99
2022-07-28T05:47:06.360Z,20.22
2022-07-28T05:50:08.148Z,20.55
2022-07-28T05:53:09.593Z,20.78
2022-07-28T05:56:11.043Z,20.93
2022-07-28T05:59:14.805Z,20.91
2022-07-28T06:02:16.659Z,20.96
2022-07-28T06:05:20.655Z,21.13
2022-07-28T06:08:24.985Z,21.18
2022-07-28T06:11:26.456Z,20.90
2022-07-28T06:14:27.876Z,20.75
2022-07-28T06:17:29.291Z,20.85
2022-07-28T06:20:30.733Z,20.73
2022-07-28T06:23:32.173Z,20.70
2022-07-28T06:26:34.493Z,20.74
2022-07-28T06:29:35.980Z,20.83
2022-07-28T06:32:37.521Z,20.80
2022-07-28T06:35:46.642Z,20.77
2022-07-28T06:38:52.645Z,20.67
2022-07-28T06:41:54.075Z,20.53
2022-07-28T06:44:59.215Z,20.60
2022-07-28T06:48:01.198Z,20.76
2022-07-28T06:51:02.809Z,20.54
2022-07-28T06:54:11.105Z,20.55
2022-07-28T06:57:13.734Z,20.61
2022-07-28T07:00:15.984Z,20.72
2022-07-28T07:03:17.574Z,20.97
2022-07-28T07:06:19.088Z,21.15
2022-07-28T07:09:20.633Z,21.20
2022-07-28T07:12:22.201Z,21.41
2022-07-28T07:15:23.749Z,21.75
2022-07-28T07:18:25.203Z,22.07
2022-07-28T07:21:26.657Z,22.32
2022-07-28T07:24:28.321Z,22.49
2022-07-28T07:27:29.792Z,22.55
2022-07-28T07:30:31.345Z,22.74
2022-07-28T07:33:32.845Z,22.92
2022-07-28T07:36:34.271Z,23.11
2022-07-28T07:39:35.690Z,22.71
2022-07-28T07:42:38.501Z,22.48
2022-07-28T07:45:41.186Z,22.64
2022-07-28T07:48:43.005Z,22.75
2022-07-28T07:51:44.550Z,23.10
2022-07-28T07:54:46.095Z,23.36
2022-07-28T07:57:47.552Z,23.51
2022-07-28T08:00:48.966Z,23.67
2022-07-28T08:03:50.674Z,23.56
2022-07-28T08:06:53.342Z,23.43
2022-07-28T08:09:54.838Z,23.53
2022-07-28T08:12:56.398Z,23.41
2022-07-28T08:15:59.545Z,23.62
2022-07-28T08:19:01.126Z,23.54
2022-07-28T08:22:02.631Z,23.64
2022-07-28T08:25:04.250Z,24.18
2022-07-28T08:28:05.678Z,24.39
2022-07-28T08:31:07.222Z,24.65
2022-07-28T08:34:26.502Z,24.72
2022-07-28T08:37:30.147Z,24.71
2022-07-28T08:40:32.779Z,24.75
2022-07-28T08:43:38.220Z,24.94
2022-07-28T08:46:41.184Z,24.91
2022-07-28T08:49:43.520Z,25.05
2022-07-28T08:52:47.986Z,25.09
2022-07-28T08:55:50.795Z,25.13
2022-07-28T08:58:52.651Z,25.27
2022-07-28T09:01:57.604Z,25.19
2022-07-28T09:04:59.712Z,24.85
2022-07-28T09:08:02.557Z,24.88
2022-07-28T09:11:06.138Z,24.90
2022-07-28T09:14:07.644Z,25.15
2022-07-28T09:17:09.608Z,25.27
2022-07-28T09:20:12.206Z,25.36
2022-07-28T09:23:41.798Z,25.40
2022-07-28T09:26:35.793Z,25.64
2022-07-28T09:29:38.946Z,25.95
2022-07-28T09:32:40.486Z,26.10
2022-07-28T09:35:44.329Z,26.30
2022-07-28T09:38:46.516Z,26.36
2022-07-28T09:41:57.071Z,26.27
2022-07-28T09:45:25.051Z,26.15
2022-07-28T09:48:27.055Z,26.40
2022-07-28T09:51:30.690Z,26.68
2022-07-28T09:54:35.159Z,26.88
2022-07-28T09:57:43.258Z,26.89
2022-07-28T10:00:47.509Z,26.61
2022-07-28T10:03:55.882Z,26.88
2022-07-28T10:07:05.407Z,27.16
2022-07-28T10:10:08.596Z,27.31
2022-07-28T10:13:10.087Z,27.38
2022-07-28T10:16:11.635Z,27.38
2022-07-28T10:19:13.143Z,27.52
2022-07-28T10:22:17.921Z,27.61
2022-07-28T10:25:21.666Z,27.58
2022-07-28T10:28:23.890Z,27.65
2022-07-28T10:31:35.369Z,28.07
2022-07-28T10:34:54.059Z,28.41
2022-07-28T10:38:00.239Z,28.45
2022-07-28T10:41:03.997Z,28.39
2022-07-28T10:44:05.962Z,28.24
2022-07-28T10:47:18.548Z,28.31
2022-07-28T10:50:22.637Z,28.51
2022-07-28T10:53:37.185Z,28.59
2022-07-28T10:56:57.159Z,28.43
2022-07-28T11:00:26.494Z,28.36
2022-07-28T11:03:44.222Z,28.36
2022-07-28T11:06:47.908Z,28.16
2022-07-28T11:09:50.044Z,28.19
2022-07-28T11:12:54.296Z,28.21
2022-07-28T11:16:17.244Z,28.30
2022-07-28T11:19:42.435Z,28.48
2022-07-28T11:22:40.286Z,28.75
2022-07-28T11:25:42.215Z,28.88
2022-07-28T11:29:03.906Z,28.84
2022-07-28T11:32:05.688Z,29.07
2022-07-28T11:35:08.854Z,29.08
2022-07-28T11:38:12.512Z,29.27
2022-07-28T11:41:37.464Z,29.46
2022-07-28T11:44:40.772Z,29.48
2022-07-28T11:47:43.674Z,29.80
2022-07-28T11:51:05.096Z,29.86
2022-07-28T11:54:16.493Z,29.43
2022-07-28T11:57:19.514Z,29.48
2022-07-28T12:00:22.378Z,29.40
2022-07-28T12:03:49.234Z,29.50
2022-07-28T12:06:52.290Z,29.58
2022-07-28T12:09:53.713Z,29.73
2022-07-28T12:12:57.630Z,29.98
2022-07-28T12:15:59.149Z,30.00
2022-07-28T12:19:01.824Z,30.03
2022-07-28T12:22:15.742Z,30.04
2022-07-28T12:25:17.427Z,30.19
2022-07-28T12:28:24.183Z,30.12
2022-07-28T12:31:30.021Z,30.25
2022-07-28T12:34:37.643Z,30.37
2022-07-28T12:37:39.545Z,30.69
2022-07-28T12:40:42.070Z,30.17
2022-07-28T12:43:54.238Z,30.48
2022-07-28T12:46:55.686Z,30.56
2022-07-28T12:50:18.961Z,30.67
2022-07-28T12:53:22.724Z,30.67
2022-07-28T12:56:24.886Z,30.61
2022-07-28T12:59:32.417Z,30.39
2022-07-28T13:02:38.018Z,30.17
2022-07-28T13:05:58.322Z,30.09
2022-07-28T13:08:59.746Z,30.08
2022-07-28T13:12:02.721Z,30.11
2022-07-28T13:15:14.260Z,29.95
2022-07-28T13:18:15.716Z,30.09
2022-07-28T13:21:41.157Z,30.25
2022-07-28T13:25:02.248Z,30.19
2022-07-28T13:28:03.802Z,30.17
2022-07-28T13:31:05.271Z,30.02
2022-07-28T13:34:09.186Z,29.72
2022-07-28T13:37:11.573Z,29.76
2022-07-28T13:40:13.040Z,29.73
2022-07-28T13:43:14.542Z,29.72
2022-07-28T13:46:16.950Z,29.86
2022-07-28T13:49:21.470Z,29.84
2022-07-28T13:52:33.191Z,29.91
2022-07-28T13:55:36.882Z,29.76
2022-07-28T13:58:38.434Z,29.48
2022-07-28T14:01:43.214Z,29.49
2022-07-28T14:04:46.048Z,29.43
2022-07-28T14:07:51.907Z,29.45
2022-07-28T14:10:56.268Z,29.38
2022-07-28T14:13:57.746Z,29.50
2022-07-28T14:17:00.140Z,29.47
2022-07-28T14:20:01.809Z,29.54
2022-07-28T14:23:03.386Z,29.65
2022-07-28T14:26:33.264Z,29.73
2022-07-28T14:29:27.658Z,29.94
2022-07-28T14:32:29.166Z,29.91
2022-07-28T14:35:30.595Z,30.02
2022-07-28T14:41:54.517Z,30.17
2022-07-28T14:44:59.334Z,30.09
2022-07-28T14:48:00.855Z,30.02
2022-07-28T14:51:02.289Z,30.20
2022-07-28T14:54:03.872Z,30.52
2022-07-28T14:57:05.310Z,30.65
2022-07-28T15:00:12.251Z,30.55
2022-07-28T15:03:13.735Z,30.58
2022-07-28T15:06:15.208Z,30.82
2022-07-28T15:09:16.640Z,31.07
2022-07-28T15:12:18.082Z,31.03
2022-07-28T15:15:26.238Z,31.03
2022-07-28T15:18:27.706Z,30.94
2022-07-28T15:21:34.349Z,30.97
2022-07-28T15:24:37.740Z,30.88
2022-07-28T15:27:44.418Z,30.86
2022-07-28T15:30:51.851Z,30.86
2022-07-28T15:33:57.955Z,30.94
2022-07-28T15:37:00.896Z,30.79
2022-07-28T15:40:02.312Z,30.66
2022-07-28T15:43:04.318Z,30.58
2022-07-28T15:46:09.333Z,30.36
2022-07-28T15:49:12.265Z,30.48
2022-07-28T15:52:14.513Z,30.52
2022-07-28T15:55:15.924Z,30.74
2022-07-28T15:58:17.380Z,30.54
2022-07-28T16:01:19.416Z,30.45
2022-07-28T16:04:20.857Z,30.65
2022-07-28T16:07:23.650Z,30.34
2022-07-28T16:10:26.250Z,30.00
2022-07-28T16:13:32.138Z,29.88
2022-07-28T16:16:38.808Z,29.92
2022-07-28T16:19:49.508Z,29.87
2022-07-28T16:22:52.217Z,29.80
2022-07-28T16:25:53.795Z,29.82
2022-07-28T16:28:55.729Z,29.83
2022-07-28T16:31:57.146Z,29.84
2022-07-28T16:34:58.549Z,29.92
2022-07-28T16:38:01.556Z,30.20
2022-07-28T16:41:03.554Z,30.25
2022-07-28T16:44:06.147Z,30.13
2022-07-28T16:47:07.599Z,30.00
2022-07-28T16:50:09.555Z,30.02
2022-07-28T16:53:12.173Z,30.07
2022-07-28T16:56:17.475Z,30.10
2022-07-28T16:59:18.913Z,30.20
2022-07-28T17:02:20.322Z,30.21
2022-07-28T17:05:21.810Z,30.23
2022-07-28T17:08:23.532Z,30.21
2022-07-28T17:11:24.965Z,30.07
2022-07-28T17:14:26.375Z,29.98
2022-07-28T17:17:28.269Z,29.89
2022-07-28T17:20:29.718Z,29.84
2022-07-28T17:23:31.373Z,29.75
2022-07-28T17:29:58.088Z,29.68
2022-07-28T17:33:06.066Z,29.68
2022-07-28T17:36:09.754Z,29.57
2022-07-28T17:39:12.610Z,29.54
2022-07-28T17:42:14.041Z,29.52
2022-07-28T17:45:16.210Z,29.46
2022-07-28T17:48:18.629Z,29.41
2022-07-28T17:51:20.133Z,29.24
2022-07-28T17:54:24.884Z,29.23
2022-07-28T17:57:27.621Z,29.21
2022-07-28T18:00:31.882Z,29.10
2022-07-28T18:03:59.226Z,29.06
2022-07-28T18:06:54.837Z,29.03
2022-07-28T18:09:56.285Z,28.98
2022-07-28T18:12:57.702Z,28.95
2022-07-28T18:15:59.132Z,29.03
2022-07-28T18:19:00.637Z,29.09
2022-07-28T18:22:02.086Z,29.01
2022-07-28T18:25:03.772Z,28.99
2022-07-28T18:28:07.645Z,28.82
2022-07-28T18:31:09.109Z,28.73
2022-07-28T18:34:10.586Z,28.67
2022-07-28T18:37:15.075Z,28.66
2022-07-28T18:40:18.045Z,28.62
2022-07-28T18:43:19.511Z,28.60
2022-07-28T18:46:21.038Z,28.59
2022-07-28T18:49:26.898Z,28.55
2022-07-28T18:52:28.661Z,28.46
2022-07-28T18:55:30.114Z,28.33
2022-07-28T18:58:31.610Z,28.24
2022-07-28T19:01:33.099Z,28.20
2022-07-28T19:04:34.536Z,28.11
2022-07-28T19:07:36.354Z,27.97
2022-07-28T19:10:37.901Z,27.93
2022-07-28T19:13:39.387Z,27.79
2022-07-28T19:16:40.815Z,27.77
2022-07-28T19:19:42.528Z,27.73
2022-07-28T19:22:43.929Z,27.69
2022-07-28T19:25:45.850Z,27.57
2022-07-28T19:28:47.385Z,27.50
2022-07-28T19:31:48.861Z,27.44
2022-07-28T19:34:50.320Z,27.42
2022-07-28T19:37:52.662Z,27.37
2022-07-28T19:40:55.425Z,27.30
2022-07-28T19:43:57.697Z,27.30
2022-07-28T19:47:00.367Z,27.33
2022-07-28T19:50:01.789Z,27.29
2022-07-28T19:53:03.819Z,27.33
2022-07-28T19:56:08.787Z,27.29
2022-07-28T19:59:10.720Z,27.16
2022-07-28T20:02:12.306Z,27.14
2022-07-28T20:05:13.802Z,27.12
2022-07-28T20:08:15.293Z,27.05
2022-07-28T20:11:16.957Z,27.07
2022-07-28T20:14:18.821Z,27.00
2022-07-28T20:17:37.569Z,26.90
2022-07-28T20:20:39.790Z,26.82
2022-07-28T20:23:42.210Z,26.82
2022-07-28T20:26:45.707Z,26.79
2022-07-28T20:29:47.128Z,26.79
2022-07-28T20:32:48.674Z,26.71
2022-07-28T20:35:50.468Z,26.65
2022-07-28T20:38:56.125Z,26.51
2022-07-28T20:41:57.578Z,26.45
2022-07-28T20:44:59.134Z,26.51
2022-07-28T20:48:00.851Z,26.52
2022-07-28T20:51:02.918Z,26.43
2022-07-28T20:54:04.871Z,26.29
2022-07-28T20:57:06.623Z,26.24
2022-07-28T21:00:08.911Z,26.28
2022-07-28T21:03:10.512Z,26.15
2022-07-28T21:06:12.406Z,26.08
2022-07-28T21:09:16.686Z,26.06
2022-07-28T21:12:18.114Z,26.06
2022-07-28T21:15:20.731Z,25.99
2022-07-28T21:18:22.163Z,25.98
2022-07-28T21:21:23.909Z,25.98
2022-07-28T21:24:25.315Z,25.99
2022-07-28T21:27:27.288Z,25.96
2022-07-28T21:30:28.919Z,25.84
2022-07-28T21:33:30.480Z,25.85
2022-07-28T21:36:32.021Z,25.81
2022-07-28T21:39:34.259Z,25.77
2022-07-28T21:42:35.682Z,25.80
2022-07-28T21:45:37.143Z,25.80
2022-07-28T21:48:38.761Z,25.76
2022-07-28T21:51:46.509Z,25.77
2022-07-28T21:54:48.617Z,25.84
2022-07-28T21:57:50.086Z,25.64
2022-07-28T22:00:51.642Z,25.41
2022-07-28T22:03:53.160Z,25.28
2022-07-28T22:06:54.815Z,25.32
2022-07-28T22:09:56.725Z,25.33
2022-07-28T22:13:00.115Z,25.32
2022-07-28T22:16:01.716Z,25.34
2022-07-28T22:19:04.060Z,25.40
2022-07-28T22:22:05.527Z,25.45
2022-07-28T22:25:07.701Z,25.45
2022-07-28T22:28:09.148Z,25.46
2022-07-28T22:31:17.025Z,25.41
2022-07-28T22:34:18.850Z,25.48
2022-07-28T22:37:20.601Z,25.52
2022-07-28T22:40:22.715Z,25.50
2022-07-28T22:43:24.214Z,25.48
2022-07-28T22:46:25.775Z,25.41
2022-07-28T22:49:27.276Z,25.36
2022-07-28T22:52:29.897Z,25.28
2022-07-28T22:55:31.399Z,25.31
2022-07-28T22:58:32.851Z,25.31
2022-07-28T23:01:35.265Z,25.31
2022-07-28T23:04:36.887Z,25.28
2022-07-28T23:07:53.162Z,25.21
2022-07-28T23:10:59.022Z,25.19
2022-07-28T23:14:00.510Z,25.10
2022-07-28T23:17:02.376Z,25.05
2022-07-28T23:20:05.025Z,25.04
2022-07-28T23:23:06.988Z,25.00
2022-07-28T23:26:08.431Z,24.97
2022-07-28T23:29:09.846Z,24.93
2022-07-28T23:32:16.654Z,24.91
2022-07-28T23:35:19.063Z,24.89
2022-07-28T23:38:20.492Z,24.86
2022-07-28T23:41:21.993Z,24.80
2022-07-28T23:44:23.483Z,24.78
2022-07-28T23:47:24.923Z,24.74
2022-07-28T23:50:27.065Z,24.71
2022-07-28T23:53:28.572Z,24.65
2022-07-28T23:56:30.362Z,24.63
2022-07-28T23:59:31.868Z,24.59
